Map

Track Data

SID SEASON NUMBER BASIN SUBBASIN NAME ISO_TIME NATURE LAT LON WMO_WIND WMO_PRES WMO_AGENCY TRACK_TYPE DIST2LAND LANDFALL IFLAG USA_AGENCY USA_ATCF_ID USA_LAT USA_LON USA_RECORD USA_STATUS USA_WIND USA_PRES USA_SSHS USA_R34_NE USA_R34_SE USA_R34_SW USA_R34_NW USA_R50_NE USA_R50_SE USA_R50_SW USA_R50_NW USA_R64_NE USA_R64_SE USA_R64_SW USA_R64_NW USA_POCI USA_ROCI USA_RMW USA_EYE TOKYO_LAT TOKYO_LON TOKYO_GRADE TOKYO_WIND TOKYO_PRES TOKYO_R50_DIR TOKYO_R50_LONG TOKYO_R50_SHORT TOKYO_R30_DIR TOKYO_R30_LONG TOKYO_R30_SHORT TOKYO_LAND CMA_LAT CMA_LON CMA_CAT CMA_WIND CMA_PRES HKO_LAT HKO_LON HKO_CAT HKO_WIND HKO_PRES NEWDELHI_LAT NEWDELHI_LON NEWDELHI_GRADE NEWDELHI_WIND NEWDELHI_PRES NEWDELHI_CI NEWDELHI_DP NEWDELHI_POCI REUNION_LAT REUNION_LON REUNION_TYPE REUNION_WIND REUNION_PRES REUNION_TNUM REUNION_CI REUNION_RMW REUNION_R34_NE REUNION_R34_SE REUNION_R34_SW REUNION_R34_NW REUNION_R50_NE REUNION_R50_SE REUNION_R50_SW REUNION_R50_NW REUNION_R64_NE REUNION_R64_SE REUNION_R64_SW REUNION_R64_NW BOM_LAT BOM_LON BOM_TYPE BOM_WIND BOM_PRES BOM_TNUM BOM_CI BOM_RMW BOM_R34_NE BOM_R34_SE BOM_R34_SW BOM_R34_NW BOM_R50_NE BOM_R50_SE BOM_R50_SW BOM_R50_NW BOM_R64_NE BOM_R64_SE BOM_R64_SW BOM_R64_NW BOM_ROCI BOM_POCI BOM_EYE BOM_POS_METHOD BOM_PRES_METHOD NADI_LAT NADI_LON NADI_CAT NADI_WIND NADI_PRES WELLINGTON_LAT WELLINGTON_LON WELLINGTON_WIND WELLINGTON_PRES DS824_LAT DS824_LON DS824_STAGE DS824_WIND DS824_PRES TD9636_LAT TD9636_LON TD9636_STAGE TD9636_WIND TD9636_PRES TD9635_LAT TD9635_LON TD9635_WIND TD9635_PRES TD9635_ROCI NEUMANN_LAT NEUMANN_LON NEUMANN_CLASS NEUMANN_WIND NEUMANN_PRES MLC_LAT MLC_LON MLC_CLASS MLC_WIND MLC_PRES USA_GUST BOM_GUST BOM_GUST_PER REUNION_GUST REUNION_GUST_PER USA_SEAHGT USA_SEARAD_NE USA_SEARAD_SE USA_SEARAD_SW USA_SEARAD_NW STORM_SPEED STORM_DIR
1958320S08099 1959 106 SI WA NOT_NAMED 1958-11-16 06:00:00 TS -7.90000 99.4000 main 542 542 O________OO___ jtwc_sh SH021959 -7.90000 99.4000 -1 -7.90000 99.4000 TC 25 -7.90000 99.4000 7 2 227
1958320S08099 1959 106 SI WA NOT_NAMED 1958-11-16 09:00:00 TS -7.95407 99.3459 main 557 557 P________PP___ SH021959 -7.94749 99.3625 -1 -7.94749 99.3625 TC 25 -7.96723 99.3126 7 2 229
1958320S08099 1959 106 SI WA NOT_NAMED 1958-11-16 12:00:00 TS -8.00919 99.2767 main 557 557 O________OP___ jtwc_sh SH021959 -8.00000 99.3000 -1 -8.00000 99.3000 TC 25 -8.02757 99.2301 7 2 236
1958320S08099 1959 106 SI WA NOT_NAMED 1958-11-16 15:00:00 TS -8.06304 99.1859 main 573 555 P________PP___ SH021959 -8.05751 99.2000 -1 -8.05751 99.2000 TC 25 -8.07411 99.1576 7 3 322
1958320S08099 1959 106 SI WA NOT_NAMED 1958-11-16 16:00:00 TS -7.84139 99.1431 main 553 536 P________PP___ SH021959 -8.07457 99.1642 -1 -8.07457 99.1642 TC 25 -8.08538 99.1365 7 10 348
1958320S08099 1959 106 SI WA NOT_NAMED 1958-11-16 18:00:00 TS -7.55482 99.0742 main 536 528 O________OO___ jtwc_sh SH021959 -8.10000 99.1000 -1 -8.10000 99.1000 TC 25 -8.10000 99.1000 1 2 309
1958320S08099 1959 106 SI WA NOT_NAMED 1958-11-16 21:00:00 TS -7.75956 99.0348 main 561 561 P________PP___ SH021959 -8.09999 99.0500 -1 -8.09999 99.0500 TC 25 -8.10367 99.0574 1 6 188
1958320S08099 1959 106 SI WA NOT_NAMED 1958-11-17 00:00:00 TS -8.15346 98.9888 main 595 595 O________OP___ jtwc_sh SH021959 -8.10000 99.0000 -1 -8.10000 99.0000 TC 25 -8.10487 99.0098 1 9 187
1958320S08099 1959 106 SI WA NOT_NAMED 1958-11-17 01:00:00 TS -8.32748 98.9661 1004 bom main 604 604 P_____O__PP___ SH021959 -8.10308 98.9776 -1 -9.00000 99.0000 1004 -8.10308 98.9776 TC 25 -8.10905 98.9885 1 8 194
1958320S08099 1959 106 SI WA NOT_NAMED 1958-11-17 03:00:00 TS -8.55301 98.8941 main 637 637 P_____P__PP___ SH021959 -8.11999 98.9225 -1 -9.05433 98.8667 1002 -8.11999 98.9225 TC 25 -8.12864 98.9323 1 7 200
1958320S08099 1959 106 SI WA NOT_NAMED 1958-11-17 04:00:00 TS -8.65077 98.8474 1002 bom main 653 653 P_____O__PP___ SH021959 -8.13752 98.8879 -1 -9.10000 98.8000 1002 -8.13752 98.8879 TC 25 -8.14590 98.8955 1 6 211
1958320S08099 1959 106 SI WA NOT_NAMED 1958-11-17 06:00:00 TS -8.81723 98.7365 main 669 669 O_____P__OO___ jtwc_sh SH021959 -8.20000 98.8000 -1 -9.23580 98.6667 1000 -8.20000 98.8000 TC 25 -8.20000 98.8000 1 6 215
1958320S08099 1959 106 SI WA NOT_NAMED 1958-11-17 07:00:00 TS -8.89645 98.6776 1000 bom main 677 677 P_____O__PP___ SH021959 -8.24953 98.7526 -1 -9.30000 98.6000 1000 -8.24953 98.7526 TC 25 -8.24321 98.7389 1 6 223
1958320S08099 1959 106 SI WA NOT_NAMED 1958-11-17 09:00:00 TS -9.01932 98.5486 main 700 700 P_____P__PP___ SH021959 -8.37747 98.6375 -1 -9.37027 98.4659 1000 -8.37747 98.6375 TC 25 -8.34970 98.5947 1 5 227
1958320S08099 1959 106 SI WA NOT_NAMED 1958-11-17 10:00:00 TS -9.08204 98.4786 1000 bom main 708 708 P_____O__PP___ SH021959 -8.45034 98.5679 -1 -9.40000 98.4000 1000 -8.45034 98.5679 TC 25 -8.41138 98.5129 1 5 232
1958320S08099 1959 106 SI WA NOT_NAMED 1958-11-17 12:00:00 TS -9.18574 98.3311 main 731 731 O_____P__OP___ jtwc_sh SH021959 -8.60000 98.4000 -1 -9.48569 98.2771 999 -8.60000 98.4000 TC 25 -8.54751 98.3326 1 6 234
1958320S08099 1959 106 SI WA NOT_NAMED 1958-11-17 15:00:00 TS -9.35801 98.0898 main 762 762 P_____P__PP___ SH021959 -8.80002 98.0725 -1 -9.64996 98.1056 997 -8.80002 98.0725 TC 25 -8.77155 98.0291 1 6 234
1958320S08099 1959 106 SI WA NOT_NAMED 1958-11-17 16:00:00 TS -9.42024 98.0056 main 769 769 P_____P__PP___ SH021959 -8.86668 97.9496 -1 -9.71424 98.0499 997 -8.86668 97.9496 TC 25 -8.84829 97.9215 1 6 231
1958320S08099 1959 106 SI WA NOT_NAMED 1958-11-17 18:00:00 TS -9.56337 97.8376 main 800 800 O_____P__OO___ jtwc_sh SH021959 -9.00000 97.7000 -1 -9.85711 97.9382 996 -9.00000 97.7000 TC 25 -9.00000 97.7000 1 7 228
1958320S08099 1959 106 SI WA NOT_NAMED 1958-11-17 21:00:00 TS -9.78695 97.5909 main 831 831 P_____P__PP___ SH021959 -9.19997 97.3500 -1 -10.1071 97.7626 995 -9.19997 97.3500 TC 25 -9.17554 97.3834 1 7 227
1958320S08099 1959 106 SI WA NOT_NAMED 1958-11-17 22:00:00 TS -9.86367 97.5080 995 bom main 847 847 P_____O__PP___ SH021959 -9.26664 97.2333 -1 -10.2000 97.7000 995 -9.26664 97.2333 TC 25 -9.23396 97.2729 1 7 226
1958320S08099 1959 106 SI WA NOT_NAMED 1958-11-18 00:00:00 TS -10.0182 97.3425 main 869 869 O_____P__OP___ jtwc_sh SH021959 -9.40000 97.0000 -1 -10.4066 97.5672 995 -9.40000 97.0000 TC 25 -9.35486 97.0444 1 7 226
1958320S08099 1959 106 SI WA NOT_NAMED 1958-11-18 01:00:00 TS -10.0919 97.2620 995 bom main 878 878 P_____O__PP___ SH021959 -9.46139 96.8859 -1 -10.5000 97.5000 995 -9.46139 96.8859 TC 25 -9.41872 96.9265 1 6 228
1958320S08099 1959 106 SI WA NOT_NAMED 1958-11-18 03:00:00 TS -10.2315 97.1025 main 901 901 P_____P__PP___ SH021959 -9.58494 96.6574 -1 -10.6467 97.3667 994 -9.58494 96.6574 TC 25 -9.55674 96.6833 1 6 229
1958320S08099 1959 106 SI WA NOT_NAMED 1958-11-18 04:00:00 TS -10.2978 97.0221 994 bom main 916 916 P_____O__PP___ SH021959 -9.65081 96.5411 -1 -10.7000 97.3000 994 -9.65081 96.5411 TC 25 -9.63230 96.5580 1 6 232
1958320S08099 1959 106 SI WA NOT_NAMED 1958-11-18 06:00:00 TS -10.4204 96.8579 main 932 932 O_____P__OO___ jtwc_sh SH021959 -9.80000 96.3000 -1 -10.7721 97.1667 992 -9.80000 96.3000 TC 25 -9.80000 96.3000 1 6 234
1958320S08099 1959 106 SI WA NOT_NAMED 1958-11-18 07:00:00 TS -10.4776 96.7710 992 bom main 947 947 P_____O__PP___ SH021959 -9.88331 96.1750 -1 -10.8000 97.1000 992 -9.88331 96.1750 TC 25 -9.89291 96.1623 1 6 237
1958320S08099 1959 106 SI WA NOT_NAMED 1958-11-18 09:00:00 TS -10.5930 96.5914 main 970 970 P_____P__PP___ SH021959 -10.0700 95.9149 -1 -10.8641 96.9641 993 -10.0700 95.9149 TC 25 -10.0948 95.8764 1 6 237
1958320S08099 1959 106 SI WA NOT_NAMED 1958-11-18 10:00:00 TS -10.6535 96.5001 994 bom main 986 986 P_____O__PP___ SH021959 -10.1733 95.7799 -1 -10.9000 96.9000 994 -10.1733 95.7799 TC 25 -10.2032 95.7300 1 7 235
1958320S08099 1959 106 SI WA NOT_NAMED 1958-11-18 12:00:00 TS -10.7852 96.3192 main 1009 1009 O_____P__OP___ jtwc_sh SH021959 -10.4000 95.5000 -1 -10.9703 96.7963 994 -10.4000 95.5000 TC 25 -10.4328 95.4351 1 7 230
1958320S08099 1959 106 SI WA NOT_NAMED 1958-11-18 15:00:00 TS -11.0248 96.0532 main 1040 1040 P_____P__PP___ SH021959 -10.7850 95.0425 -1 -11.1245 96.6546 995 -10.7850 95.0425 TC 25 -10.8042 95.0013 1 7 226
1958320S08099 1959 106 SI WA NOT_NAMED 1958-11-18 16:00:00 TS -11.1168 95.9624 996 bom main 1056 1056 P_____O__PP___ SH021959 -10.9225 94.8897 -1 -11.2000 96.6000 996 -10.9225 94.8897 TC 25 -10.9339 94.8627 1 8 222
1958320S08099 1959 106 SI WA NOT_NAMED 1958-11-18 18:00:00 TS -11.3184 95.7785 main 1087 1087 O_____P__OO___ jtwc_sh SH021959 -11.2000 94.6000 -1 -11.3947 96.4684 996 -11.2000 94.6000 TC 25 -11.2000 94.6000 1 8 222
1958320S08099 1959 106 SI WA NOT_NAMED 1958-11-18 19:00:00 TS -11.4202 95.6867 997 bom main 1102 1102 P_____O__PP___ SH021959 -11.3307 94.4666 -1 -11.5000 96.4000 997 -11.3307 94.4666 TC 25 -11.3316 94.4697 1 8 221
1958320S08099 1959 106 SI WA NOT_NAMED 1958-11-18 21:00:00 TS -11.6343 95.4991 main 1134 1134 P_____P__PP___ SH021959 -11.5924 94.2199 -1 -11.7079 96.2667 997 -11.5924 94.2199 TC 25 -11.6034 94.2196 1 9 221
1958320S08099 1959 106 SI WA NOT_NAMED 1958-11-18 22:00:00 TS -11.7462 95.4017 998 bom main 1149 1149 P_____O__PP___ SH021959 -11.7254 94.1066 -1 -11.8000 96.2000 998 -11.7254 94.1066 TC 25 -11.7429 94.1010 1 9 221
1958320S08099 1959 106 SI WA NOT_NAMED 1958-11-19 00:00:00 TS -11.9762 95.1999 main 1189 1189 O_____P__OP___ jtwc_sh SH021959 -12.0000 93.9000 -1 -11.9150 96.0982 998 -12.0000 93.9000 TC 25 -12.0275 93.8804 1 9 221
1958320S08099 1959 106 SI WA NOT_NAMED 1958-11-19 01:00:00 TS -12.1019 95.0855 999 bom main 1204 1204 P_____O__PP___ SH021959 -12.1469 93.7948 -1 -12.0000 96.0000 999 -12.1469 93.7948 TC 25 -12.1718 93.7797 1 11 222
1958320S08099 1959 106 SI WA NOT_NAMED 1958-11-19 03:00:00 TS -12.3863 94.8225 main 1251 1251 P_____P__PP___ SH021959 -12.4500 93.6050 -1 -12.3171 95.6218 999 -12.4500 93.6050 TC 25 -12.4628 93.6010 1 12 222
1958320S08099 1959 106 SI WA NOT_NAMED 1958-11-19 04:00:00 TS -12.5372 94.6834 1000 bom main 1267 1267 P_____O__PP___ SH021959 -12.6025 93.5243 -1 -12.5000 95.4000 1000 -12.6025 93.5243 TC 25 -12.6088 93.5243 1 12 222
1958320S08099 1959 106 SI WA NOT_NAMED 1958-11-19 06:00:00 TS -12.8419 94.4077 main 1314 1314 O_____P__OO___ jtwc_sh SH021959 -12.9000 93.4000 -1 -12.8333 95.0000 1000 -12.9000 93.4000 TC 25 -12.9000 93.4000 1 12 221
1958320S08099 1959 106 SI WA NOT_NAMED 1958-11-19 07:00:00 TS -12.9930 94.2744 1001 bom main 1337 1337 P_____O__PP___ SH021959 -13.0364 93.3578 -1 -13.0000 94.8000 1001 -13.0364 93.3578 TC 25 -13.0403 93.3570 1 12 220
1958320S08099 1959 106 SI WA NOT_NAMED 1958-11-19 09:00:00 TS -13.3004 94.0108 main 1384 1384 P_____P__PP___ SH021959 -13.3000 93.3124 -1 -13.3333 94.3999 1001 -13.3000 93.3124 TC 25 -13.3207 93.3033 1 12 220
1958320S08099 1959 106 SI WA NOT_NAMED 1958-11-19 10:00:00 TS -13.4564 93.8805 1001 bom main 1408 1408 P_____O__PP___ SH021959 -13.4308 93.3036 -1 -13.5000 94.2000 1001 -13.4308 93.3036 TC 25 -13.4610 93.2897 1 12 219
1958320S08099 1959 106 SI WA NOT_NAMED 1958-11-19 12:00:00 TS -13.7720 93.6224 main 1455 1455 O_____P__OP___ jtwc_sh SH021959 -13.7000 93.3000 -1 -13.8333 93.7999 1001 -13.7000 93.3000 TC 25 -13.7422 93.2815 1 12 218
1958320S08099 1959 106 SI WA NOT_NAMED 1958-11-19 15:00:00 TS -14.2532 93.2431 main 1525 1525 P_____P__PP___ SH021959 -14.1425 93.2999 -1 -14.3333 93.1999 1001 -14.1425 93.2999 TC 25 -14.1677 93.2940 1 12 217
1958320S08099 1959 106 SI WA NOT_NAMED 1958-11-19 16:00:00 TS -14.4137 93.1173 1001 bom main 1541 1541 P_____O__PP___ SH021959 -14.2946 93.3024 -1 -14.5000 93.0000 1001 -14.2946 93.3024 TC 25 -14.3109 93.2987 1 12 218
1958320S08099 1959 106 SI WA NOT_NAMED 1958-11-19 18:00:00 TS -14.7315 92.8624 main 1580 1580 O_____P__OO___ jtwc_sh SH021959 -14.6000 93.3000 -1 -14.8333 92.6083 1001 -14.6000 93.3000 TC 25 -14.6000 93.3000 1 12 219
1958320S08099 1959 106 SI WA NOT_NAMED 1958-11-19 19:00:00 TS -14.8902 92.7221 1001 bom main 1611 1611 P_____O__PP___ SH021959 -14.7500 93.2917 -1 -15.0000 92.4000 1001 -14.7500 93.2917 TC 25 -14.7454 93.2878 1 13 221
1958320S08099 1959 106 SI WA NOT_NAMED 1958-11-19 21:00:00 TS -15.2036 92.4347 main 1658 1658 P_____P__PP___ SH021959 -15.0500 93.2650 -1 -15.3333 91.9387 1001 -15.0500 93.2650 TC 25 -15.0387 93.2594 1 13 221
1958320S08099 1959 106 SI WA NOT_NAMED 1958-11-19 22:00:00 TS -15.3569 92.2945 1001 bom main 1682 1682 P_____O__PP___ SH021959 -15.2000 93.2466 -1 -15.5000 91.7000 1001 -15.2000 93.2466 TC 25 -15.1866 93.2426 1 12 221
1958320S08099 1959 106 SI WA NOT_NAMED 1958-11-20 00:00:00 TS -15.6559 92.0308 main 1728 1728 O_____P__OP___ jtwc_sh SH021959 -15.5000 93.2000 -1 -15.8571 91.1861 1001 -15.5000 93.2000 TC 25 -15.4849 93.2020 1 11 219
1958320S08099 1959 106 SI WA NOT_NAMED 1958-11-20 01:00:00 TS -15.7957 91.9217 1002 bom main 1743 1743 P_____O__PP___ SH021959 -15.6500 93.1750 -1 -16.0000 91.0000 1002 -15.6500 93.1750 TC 25 -15.6353 93.1775 1 9 210
1958320S08099 1959 106 SI WA NOT_NAMED 1958-11-20 03:00:00 TS -16.0425 91.7934 main 1767 1767 P_____P__PP___ SH021959 -15.9500 93.1150 -1 -16.1416 90.9085 1002 -15.9500 93.1150 TC 25 -15.9387 93.1186 1 8 203
1958320S08099 1959 106 SI WA NOT_NAMED 1958-11-20 04:00:00 TS -16.1591 91.7604 1002 bom main 1784 1784 P_____O__PP___ SH021959 -16.1000 93.0800 -1 -16.2000 90.9000 1002 -16.1000 93.0800 TC 25 -16.0916 93.0835 1 8 198
1958320S08099 1959 106 SI WA NOT_NAMED 1958-11-20 06:00:00 TS -16.4012 91.6667 main 1808 1808 O_____P__OO___ jtwc_sh SH021959 -16.4000 93.0000 -1 -16.4025 90.7642 1002 -16.4000 93.0000 TC 25 -16.4000 93.0000 1 8 197
1958320S08099 1959 106 SI WA NOT_NAMED 1958-11-20 07:00:00 TS -16.5203 91.6435 1003 bom main 1823 1823 P_____O__PP___ SH021959 -16.5474 92.9609 -1 -16.5000 90.7000 1003 -16.5474 92.9609 TC 25 -16.5586 92.9562 1 7 197
1958320S08099 1959 106 SI WA NOT_NAMED 1958-11-20 09:00:00 TS -16.7433 91.5574 main 1840 1840 P_____P__PP___ SH021959 -16.8425 92.8723 -1 -16.6369 90.6272 1003 -16.8425 92.8723 TC 25 -16.8799 92.8561 1 7 199
1958320S08099 1959 106 SI WA NOT_NAMED 1958-11-20 10:00:00 TS -16.8522 91.5192 1003 bom main 1864 1864 P_____O__PP___ SH021959 -16.9921 92.8211 -1 -16.7000 90.6000 1003 -16.9921 92.8211 TC 25 -17.0416 92.7998 1 7 198
1958320S08099 1959 106 SI WA NOT_NAMED 1958-11-20 12:00:00 TS -17.0749 91.4385 main 1887 1887 O_____P__OP___ jtwc_sh SH021959 -17.3000 92.7000 -1 -16.8553 90.5318 1003 -17.3000 92.7000 TC 25 -17.3648 92.6748 1 7 201
1958320S08099 1959 106 SI WA NOT_NAMED 1958-11-20 15:00:00 TS -17.4278 91.2925 main 1919 1919 P_____P__PP___ SH021959 -17.8075 92.4725 -1 -17.1124 90.4316 1003 -17.8075 92.4725 TC 25 -17.8423 92.4560 1 8 202
1958320S08099 1959 106 SI WA NOT_NAMED 1958-11-20 16:00:00 TS -17.5455 91.2399 1004 bom main 1935 1935 P_____O__PP___ SH021959 -17.9770 92.3854 -1 -17.2000 90.4000 1004 -17.9770 92.3854 TC 25 -17.9977 92.3748 1 8 206
1958320S08099 1959 106 SI WA NOT_NAMED 1958-11-20 18:00:00 TS -17.7769 91.1172 main 1964 1964 O_____P__OO___ jtwc_sh SH021959 -18.3000 92.2000 -1 -17.3667 90.3108 1004 -18.3000 92.2000 TC 25 -18.3000 92.2000 1 8 208
1958320S08099 1959 106 SI WA NOT_NAMED 1958-11-20 21:00:00 TS -18.1007 90.9223 main 2001 2001 P_____P__PP___ SH021959 -18.7149 91.9148 -1 -17.6166 90.1762 1004 -18.7149 91.9148 TC 25 -18.7288 91.9085 1 7 210
1958320S08099 1959 106 SI WA NOT_NAMED 1958-11-21 00:00:00 TS -18.4117 90.7391 main 2038 2038 O_____P__OP___ jtwc_sh SH021959 -19.1000 91.6000 -1 -17.8666 90.0819 1004 -19.1000 91.6000 TC 25 -19.1331 91.5888 1 7 216
1958320S08099 1959 106 SI WA NOT_NAMED 1958-11-21 03:00:00 TS -18.6325 90.5112 main 2068 2068 P_____P__PP___ SH021959 -19.6501 91.2282 -1 -18.1166 90.0749 1004 -19.4952 91.2579 TC 25 -19.5209 91.2497 1 6 239
1958320S08099 1959 106 SI WA NOT_NAMED 1958-11-21 04:00:00 TS -18.6094 90.3927 1004 bom main 2077 2077 P_____O__PP___ SH021959 -19.7914 91.1078 -1 -18.2000 90.1000 1004 -19.6295 91.1397 TC 25 -19.6478 91.1338 1 4 274
1958320S08099 1959 106 SI WA NOT_NAMED 1958-11-21 06:00:00 TS -18.6186 90.3059 main 2085 2077 O_____P__OO___ jtwc_sh SH021959 -19.9000 90.9000 -1 -18.3789 90.2048 1004 -19.9000 90.9000 TC 25 -19.9000 90.9000 1 1 0
1958320S08099 1959 106 SI WA NOT_NAMED 1958-11-21 09:00:00 TS -18.5629 90.3828 main 2077 2077 P_____P_______ SH021959 -19.3224 90.6668 -1 -18.6286 90.4239 1004 TC 1 2 90
1958320S08099 1959 106 SI WA NOT_NAMED 1958-11-21 10:00:00 TS -18.6189 90.4564 1004 bom main 2068 2067 P_____O_______ SH021959 -19.0742 90.6225 -1 -18.7000 90.5000 1004 TC 1 5 128
1958320S08099 1959 106 SI WA NOT_NAMED 1958-11-21 12:00:00 TS -18.7297 90.6042 main 2067 2064 O_____P_______ jtwc_sh SH031959 -18.7000 90.6000 20 -1 -18.8061 90.6353 1004 1 6 133
1958320S08099 1959 106 SI WA NOT_NAMED 1958-11-21 15:00:00 TS -18.9306 90.8146 main 2064 2063 P_____P_______ SH031959 -18.8150 90.7475 17 -1 -18.9451 90.8353 1004 1 6 136
1958320S08099 1959 106 SI WA NOT_NAMED 1958-11-21 16:00:00 TS -19.0073 90.8834 1004 bom main 2063 2063 P_____O_______ SH031959 -18.9331 90.8286 16 -1 -19.0000 90.9000 1004 1 6 144
1958320S08099 1959 106 SI WA NOT_NAMED 1958-11-21 18:00:00 TS -19.1857 91.0103 main 2070 2062 O_____P_______ jtwc_sh SH031959 -19.2000 91.0000 15 -1 -19.1606 91.0213 1004 7 148
1958320S08099 1959 106 SI WA NOT_NAMED 1958-11-21 21:00:00 TS -19.4804 91.2005 main 2076 2075 P_____P_______ SH031959 -19.4925 91.2075 17 -1 -19.4553 91.1937 1004 7 150
1958320S08099 1959 106 SI WA NOT_NAMED 1958-11-22 00:00:00 TS -19.7938 91.3818 main 2083 2082 O_____P_______ jtwc_sh SH031959 -19.8000 91.4000 20 -1 -19.7814 91.3630 1005 7 153
1958320S08099 1959 106 SI WA NOT_NAMED 1958-11-22 03:00:00 TS -20.1045 91.5446 main 2098 2090 P_____P_______ SH031959 -20.1074 91.5501 20 -1 -20.1012 91.5385 1005 7 154
1958320S08099 1959 106 SI WA NOT_NAMED 1958-11-22 04:00:00 TS -20.2039 91.5988 1006 bom main 2098 2098 P_____O_______ SH031959 -20.2079 91.5976 20 -1 -20.2000 91.6000 1006 7 151
1958320S08099 1959 106 SI WA NOT_NAMED 1958-11-22 06:00:00 TS -20.3898 91.7139 main 2106 2098 O_____P_______ jtwc_sh SH031959 -20.4000 91.7000 20 -1 -20.3722 91.7307 1006 6 147
1958320S08099 1959 106 SI WA NOT_NAMED 1958-11-22 09:00:00 TS -20.6447 91.9096 main 2107 2107 P_____P_______ SH031959 -20.6601 91.8873 17 -1 -20.6187 91.9324 1007 6 143
1958320S08099 1959 106 SI WA NOT_NAMED 1958-11-22 10:00:00 TS -20.7239 91.9812 1008 bom main 2108 2108 P_____O_______ SH031959 -20.7413 91.9566 16 -1 -20.7000 92.0000 1008 6 140
1958320S08099 1959 106 SI WA NOT_NAMED 1958-11-22 12:00:00 TS -20.8808 92.1230 main 2116 2109 O_____P_______ jtwc_sh SH031959 -20.9000 92.1000 15 -1 -20.8638 92.1346 1009 6 140
1958320S08099 1959 106 SI WA NOT_NAMED 1958-11-22 15:00:00 NR -21.1161 92.3335 main 2118 2111 ______P_______ SH031959 -1 -21.1124 92.3351 1010 6 141
1958320S08099 1959 106 SI WA NOT_NAMED 1958-11-22 16:00:00 NR -21.1967 92.4013 main 2120 2120 ______P_______ SH031959 -1 -21.1959 92.4016 1011 6 143
1958320S08099 1959 106 SI WA NOT_NAMED 1958-11-22 18:00:00 NR -21.3634 92.5345 main 2129 2122 ______P_______ -1 -21.3634 92.5345 1012 6 144
1958320S08099 1959 106 SI WA NOT_NAMED 1958-11-22 21:00:00 NR -21.6158 92.7336 main 2132 2126 ______P_______ -1 -21.6158 92.7336 1013 6 144
1958320S08099 1959 106 SI WA NOT_NAMED 1958-11-22 22:00:00 NR -21.7000 92.8000 1014 bom main 2126 ______O_______ -1 -21.7000 92.8000 1014 6 144

About IBTrACS Database

This database is a web-friendly format of International Best Track Archive for Climate Stewardship (IBTrACS), a global best track data archive curated by NOAA dating back to 1842.

Updated: 2021-11-26